Time;durP1;ratioP1;P1;durP2;ratioP2;P2;SDS_P1;SDS_P2;PMS_P1;PMS_P2;Temp;Humidity;BMP_temperature;BMP_pressure;BME280_temperature;BME280_humidity;BME280_pressure;Samples;Min_cycle;Max_cycle;Signal;HPM_P1;HPM_P2
2022/06/18 00:01:37;;;;;;;2.07;1.90;;;;;;;;;;5113211;28;20984;-65
2022/06/18 00:04:05;;;;;;;2.17;1.90;;;;;;;;;;5113166;28;20810;-67
2022/06/18 00:06:34;;;;;;;1.80;1.60;;;;;;;;;;5113802;28;20454;-67
2022/06/18 00:09:01;;;;;;;2.10;1.70;;;;;;;;;;5113147;28;20452;-67
2022/06/18 00:14:15;;;;;;;2.10;1.50;;;;;;;;;;5113908;28;20473;-65
2022/06/18 00:16:42;;;;;;;2.00;1.90;;;;;;;;;;5113577;28;20493;-65
2022/06/18 00:19:10;;;;;;;1.80;1.70;;;;;;;;;;5112024;28;20448;-66
2022/06/18 00:21:37;;;;;;;2.70;1.57;;;;;;;;;;5113138;28;20916;-66
2022/06/18 00:24:07;;;;;;;2.57;2.17;;;;;;;;;;5112448;28;20942;-66
2022/06/18 00:26:34;;;;;;;2.33;1.90;;;;;;;;;;5112634;28;20472;-66
2022/06/18 00:29:01;;;;;;;2.30;1.70;;;;;;;;;;5112870;28;20444;-66
2022/06/18 00:31:32;;;;;;;2.40;1.80;;;;;;;;;;5112609;28;20915;-66
2022/06/18 00:33:59;;;;;;;2.40;1.63;;;;;;;;;;5112812;28;20436;-66
2022/06/18 00:36:26;;;;;;;2.40;1.80;;;;;;;;;;5112958;28;20491;-66
2022/06/18 00:38:53;;;;;;;3.30;1.73;;;;;;;;;;5112684;28;20539;-66
2022/06/18 00:41:22;;;;;;;2.73;1.73;;;;;;;;;;5112015;28;20548;-67
2022/06/18 00:43:52;;;;;;;1.70;1.50;;;;;;;;;;5112540;28;20471;-67
2022/06/18 00:46:22;;;;;;;1.70;1.60;;;;;;;;;;5112928;28;20534;-67
2022/06/18 00:48:53;;;;;;;1.83;1.67;;;;;;;;;;5112233;28;21021;-66
2022/06/18 00:51:23;;;;;;;3.70;1.53;;;;;;;;;;5112545;28;20530;-67
2022/06/18 00:53:53;;;;;;;2.33;2.00;;;;;;;;;;5112490;28;20533;-66
2022/06/18 00:56:27;;;;;;;1.93;1.73;;;;;;;;;;5112494;28;20479;-68
2022/06/18 00:58:56;;;;;;;2.10;1.90;;;;;;;;;;5112786;28;20440;-65
2022/06/18 01:01:26;;;;;;;2.33;2.10;;;;;;;;;;5112699;28;20448;-65
2022/06/18 01:03:55;;;;;;;2.60;2.20;;;;;;;;;;5112380;28;20521;-67
2022/06/18 01:06:25;;;;;;;1.70;1.57;;;;;;;;;;5112202;28;20539;-67
2022/06/18 01:08:57;;;;;;;1.80;1.70;;;;;;;;;;5112008;28;20454;-67
2022/06/18 01:11:27;;;;;;;1.93;1.83;;;;;;;;;;5111905;28;20455;-66
2022/06/18 01:13:54;;;;;;;2.00;1.57;;;;;;;;;;5111991;28;20444;-66
2022/06/18 01:16:22;;;;;;;1.80;1.50;;;;;;;;;;5112510;28;20489;-67
2022/06/18 01:18:50;;;;;;;2.80;1.83;;;;;;;;;;5111623;28;20440;-67
2022/06/18 01:21:23;;;;;;;2.87;1.73;;;;;;;;;;5112203;28;20447;-66
2022/06/18 01:23:52;;;;;;;1.93;1.50;;;;;;;;;;5111891;28;20445;-66
2022/06/18 01:26:21;;;;;;;1.73;1.63;;;;;;;;;;5112250;28;20641;-67
2022/06/18 01:28:48;;;;;;;2.83;1.70;;;;;;;;;;5111780;28;20467;-69
2022/06/18 01:31:15;;;;;;;1.70;1.50;;;;;;;;;;5112122;28;20766;-66
2022/06/18 01:33:43;;;;;;;1.87;1.47;;;;;;;;;;5111686;28;20458;-66
2022/06/18 01:36:11;;;;;;;1.37;1.27;;;;;;;;;;5111518;28;20451;-66
2022/06/18 01:38:40;;;;;;;1.53;1.43;;;;;;;;;;5111626;28;20454;-66
2022/06/18 01:43:59;;;;;;;5.20;1.43;;;;;;;;;;5111311;28;20426;-66
2022/06/18 01:46:27;;;;;;;3.13;1.60;;;;;;;;;;5111746;28;20451;-67
2022/06/18 01:48:55;;;;;;;1.40;1.30;;;;;;;;;;5111418;28;20455;-67
2022/06/18 01:51:24;;;;;;;1.47;1.20;;;;;;;;;;5111463;28;20806;-67
2022/06/18 01:53:53;;;;;;;1.67;1.53;;;;;;;;;;5111456;28;20795;-67
2022/06/18 01:56:22;;;;;;;2.03;1.83;;;;;;;;;;5111713;28;20809;-67
2022/06/18 01:58:51;;;;;;;2.73;1.83;;;;;;;;;;5110932;28;20943;-67
2022/06/18 02:01:24;;;;;;;1.90;1.70;;;;;;;;;;5111304;28;20448;-68
2022/06/18 02:03:51;;;;;;;2.60;1.50;;;;;;;;;;5111221;28;20855;-69
2022/06/18 02:06:18;;;;;;;2.07;1.70;;;;;;;;;;5111610;28;20522;-67
2022/06/18 02:08:46;;;;;;;1.73;1.50;;;;;;;;;;5111769;28;20470;-66
2022/06/18 02:11:16;;;;;;;2.57;1.77;;;30.20;1.00;;;;;;5111249;28;20459;-66
2022/06/18 02:13:46;;;;;;;3.60;1.77;;;18.20;1.00;;;;;;5112118;28;20553;-66
2022/06/18 02:16:18;;;;;;;1.63;1.53;;;17.90;1.00;;;;;;5111806;28;20442;-67
2022/06/18 02:18:48;;;;;;;2.03;1.60;;;18.00;1.00;;;;;;5111376;28;20801;-67
2022/06/18 02:21:17;;;;;;;2.87;2.00;;;18.30;99.90;;;;;;5111227;28;20453;-67
2022/06/18 02:23:43;;;;;;;2.63;1.53;;;18.10;99.90;;;;;;5111558;28;20444;-67
2022/06/18 02:26:10;;;;;;;2.60;1.93;;;18.20;99.90;;;;;;5110655;28;20456;-67
2022/06/18 02:28:40;;;;;;;1.90;1.67;;;18.30;99.90;;;;;;5111220;28;20450;-67
2022/06/18 02:31:11;;;;;;;1.93;1.80;;;18.30;99.90;;;;;;5110501;28;20510;-67
2022/06/18 02:33:41;;;;;;;2.17;1.70;;;18.40;99.90;;;;;;5111368;28;20448;-66
2022/06/18 02:36:15;;;;;;;2.00;1.90;;;18.50;99.90;;;;;;5110430;28;20669;-66
2022/06/18 02:38:43;;;;;;;1.70;1.60;;;18.70;99.90;;;;;;5111725;28;20431;-66
2022/06/18 02:41:11;;;;;;;2.93;1.63;;;18.40;99.90;;;;;;5111041;28;20806;-66
2022/06/18 02:43:39;;;;;;;1.60;1.47;;;18.30;99.90;;;;;;5115115;28;20515;-66
2022/06/18 02:46:06;;;;;;;1.80;1.70;;;18.20;99.90;;;;;;5114747;28;20440;-66
2022/06/18 02:48:37;;;;;;;1.87;1.73;;;17.90;99.90;;;;;;5115076;28;20458;-67
2022/06/18 02:51:05;;;;;;;2.17;1.50;;;17.90;1.00;;;;;;5114380;28;20527;-66
2022/06/18 02:53:34;;;;;;;1.50;1.40;;;17.90;1.00;;;;;;5115008;28;20454;-66
2022/06/18 02:56:03;;;;;;;2.27;2.07;;;17.70;1.00;;;;;;5114045;28;20794;-67
2022/06/18 02:58:33;;;;;;;1.47;1.37;;;17.90;1.00;;;;;;5114715;28;20514;-67
2022/06/18 03:01:01;;;;;;;2.17;2.00;;;18.10;1.00;;;;;;5114065;28;20538;-67
2022/06/18 03:03:33;;;;;;;1.40;1.30;;;18.40;99.90;;;;;;5114894;28;20440;-67
2022/06/18 03:06:00;;;;;;;1.43;1.33;;;18.30;99.90;;;;;;5113913;28;20451;-67
2022/06/18 03:08:29;;;;;;;1.97;1.87;;;18.20;99.90;;;;;;5114892;28;20463;-68
2022/06/18 03:13:41;;;;;;;1.67;1.57;;;18.20;99.90;;;;;;5114683;28;20430;-67
2022/06/18 03:16:12;;;;;;;2.50;1.77;;;18.30;99.90;;;;;;5113780;28;20967;-67
2022/06/18 03:18:40;;;;;;;2.47;1.67;;;18.00;99.90;;;;;;5114319;28;20477;-67
2022/06/18 03:21:16;;;;;;;2.00;1.50;;;17.90;1.00;;;;;;5113732;28;21142;-67
2022/06/18 03:23:44;;;;;;;2.00;1.80;;;17.90;1.00;;;;;;5114375;28;20942;-66
2022/06/18 03:26:13;;;;;;;3.77;2.00;;;17.90;1.00;;;;;;5113462;28;20942;-67
2022/06/18 03:28:41;;;;;;;2.00;1.80;;;18.00;1.00;;;;;;5114448;28;20439;-65
2022/06/18 03:31:08;;;;;;;2.17;1.60;;;18.00;1.00;;;;;;5113594;28;20447;-66
2022/06/18 03:33:34;;;;;;;1.77;1.67;;;17.90;1.00;;;;;;5114421;28;20870;-66
2022/06/18 03:36:02;;;;;;;1.80;1.70;;;18.00;1.00;;;;;;5113537;28;20942;-67
2022/06/18 03:38:29;;;;;;;1.87;1.77;;;17.80;1.00;;;;;;5114189;28;20487;-67
2022/06/18 03:40:56;;;;;;;1.43;1.33;;;17.60;1.00;;;;;;5113310;28;20512;-67
2022/06/18 03:43:26;;;;;;;1.77;1.57;;;17.70;1.00;;;;;;5113807;28;20800;-67
2022/06/18 03:45:56;;;;;;;2.50;2.30;;;17.70;1.00;;;;;;5113254;28;20453;-67
2022/06/18 03:48:28;;;;;;;1.87;1.70;;;17.50;1.00;;;;;;5113638;28;20447;-66
2022/06/18 03:50:55;;;;;;;2.03;1.80;;;17.80;1.00;;;;;;5113312;28;20432;-67
2022/06/18 03:53:22;;;;;;;3.30;1.83;;;17.70;1.00;;;;;;5112369;28;20458;-67
2022/06/18 03:55:51;;;;;;;2.30;2.10;;;18.10;1.00;;;;;;5113066;28;20462;-66
2022/06/18 03:58:18;;;;;;;1.63;1.53;;;17.90;1.00;;;;;;5113942;28;20475;-67
2022/06/18 04:00:46;;;;;;;1.93;1.77;;;17.80;1.00;;;;;;5113246;28;20538;-66
2022/06/18 04:03:13;;;;;;;1.67;1.57;;;17.80;1.00;;;;;;5099999;28;20452;-66
2022/06/18 04:05:42;;;;;;;1.87;1.77;;;17.60;1.00;;;;;;5114365;28;20451;-67
2022/06/18 04:08:10;;;;;;;2.80;1.90;;;17.50;1.00;;;;;;5113809;28;20535;-66
2022/06/18 04:10:37;;;;;;;1.53;1.43;;;17.40;1.00;;;;;;5114101;28;20458;-66
2022/06/18 04:13:04;;;;;;;1.80;1.70;;;17.50;1.00;;;;;;5112870;28;20540;-66
2022/06/18 04:15:30;;;;;;;1.97;1.67;;;17.60;1.00;;;;;;5113641;28;20447;-66
2022/06/18 04:17:59;;;;;;;2.27;1.73;;;18.00;1.00;;;;;;5115501;28;20480;-66
2022/06/18 04:20:29;;;;;;;2.17;2.00;;;18.20;1.00;;;;;;5115521;28;20452;-66
2022/06/18 04:22:56;;;;;;;3.37;2.60;;;18.10;1.00;;;;;;5112773;28;20444;-66
2022/06/18 04:25:26;;;;;;;2.87;1.73;;;17.90;1.00;;;;;;5113358;28;20529;-67
2022/06/18 04:27:56;;;;;;;1.80;1.70;;;17.70;1.00;;;;;;5113150;28;20562;-67
2022/06/18 04:30:24;;;;;;;2.90;2.00;;;17.70;1.00;;;;;;5113357;28;20456;-66
2022/06/18 04:32:51;;;;;;;1.60;1.50;;;17.70;1.00;;;;;;5114890;28;20535;-67
2022/06/18 04:35:20;;;;;;;2.20;1.87;;;17.60;1.00;;;;;;5113905;28;20451;-66
2022/06/18 04:37:48;;;;;;;2.30;1.90;;;17.60;1.00;;;;;;5113075;28;20493;-66
2022/06/18 04:40:18;;;;;;;1.80;1.70;;;17.70;1.00;;;;;;5113498;28;20448;-66
2022/06/18 04:42:46;;;;;;;1.93;1.77;;;17.70;1.00;;;;;;5112669;28;20440;-66
2022/06/18 04:45:14;;;;;;;2.53;2.17;;;17.80;1.00;;;;;;5113338;28;20478;-66
2022/06/18 04:47:41;;;;;;;2.33;2.13;;;17.80;1.00;;;;;;5113083;28;20451;-66
2022/06/18 04:50:14;;;;;;;3.00;1.97;;;17.90;7.00;;;;;;5112415;28;20676;-66
2022/06/18 04:52:42;;;;;;;2.07;1.90;;;17.90;1.00;;;;;;5112644;28;20478;-68
2022/06/18 04:55:10;;;;;;;1.40;1.30;;;18.10;1.00;;;;;;5112216;28;20455;-67
2022/06/18 04:57:36;;;;;;;1.97;1.77;;;18.10;1.00;;;;;;5112599;28;20523;-65
2022/06/18 05:00:06;;;;;;;1.97;1.77;;;18.20;1.00;;;;;;5112274;28;20448;-67
2022/06/18 05:02:34;;;;;;;2.37;1.90;;;18.20;1.00;;;;;;5112304;28;20839;-66
2022/06/18 05:05:01;;;;;;;2.10;1.90;;;18.30;1.00;;;;;;5111513;28;20440;-66
2022/06/18 05:07:28;;;;;;;2.60;2.40;;;18.40;1.00;;;;;;5112196;28;20454;-66
2022/06/18 05:09:56;;;;;;;3.30;2.67;;;18.50;1.00;;;;;;5112049;28;20450;-66
2022/06/18 05:12:24;;;;;;;1.80;1.70;;;;;;;;;;5111747;28;20538;-66
2022/06/18 05:14:51;;;;;;;1.97;1.87;;;;;;;;;;5111771;28;20440;-67
2022/06/18 05:17:23;;;;;;;3.30;2.27;;;;;;;;;;5112349;28;20455;-68
2022/06/18 05:19:51;;;;;;;2.27;2.10;;;;;;;;;;5112056;28;20436;-66
2022/06/18 05:22:18;;;;;;;2.00;1.53;;;;;;;;;;5111730;28;20530;-67
2022/06/18 05:24:45;;;;;;;2.00;1.80;;;;;;;;;;5112440;28;20444;-66
2022/06/18 05:27:19;;;;;;;3.13;2.23;;;;;;;;;;5111344;28;20480;-66
2022/06/18 05:29:46;;;;;;;3.50;2.40;;;;;;;;;;5112114;28;20922;-66
2022/06/18 05:32:13;;;;;;;2.03;1.83;;;;;;;;;;5111673;28;20456;-66
2022/06/18 05:34:40;;;;;;;3.13;2.13;;;;;;;;;;5112070;28;20811;-66
2022/06/18 05:37:10;;;;;;;3.70;2.47;;;;;;;;;;5111191;28;21124;-66
2022/06/18 05:39:37;;;;;;;7.03;2.40;;;;;;;;;;5111759;28;20981;-67
2022/06/18 05:42:04;;;;;;;2.50;2.30;;;;;;;;;;5110542;28;20448;-66
2022/06/18 05:44:33;;;;;;;1.70;1.60;;;;;;;;;;5112064;28;20452;-66
2022/06/18 05:47:00;;;;;;;2.70;1.87;;;;;;;;;;5111555;28;20444;-66
2022/06/18 05:49:27;;;;;;;2.17;2.03;;;;;;;;;;5112033;28;20458;-66
2022/06/18 05:51:54;;;;;;;4.03;2.33;;;;;;;;;;5110846;28;20440;-67
2022/06/18 05:54:21;;;;;;;2.30;2.07;;;;;;;;;;5112001;28;20443;-67
2022/06/18 05:56:50;;;;;;;4.70;2.30;;;;;;;;;;5097302;28;20459;-67
2022/06/18 05:59:17;;;;;;;3.40;1.77;;;;;;;;;;5111958;28;20494;-68
2022/06/18 06:01:46;;;;;;;3.10;2.27;;;;;;;;;;5111472;28;20536;-66
2022/06/18 06:04:16;;;;;;;2.77;2.57;;;;;;;;;;5111912;28;20448;-66
2022/06/18 06:06:43;;;;;;;2.63;2.43;;;;;;;;;;5111522;28;20526;-66
2022/06/18 06:09:11;;;;;;;3.07;2.20;;;;;;;;;;5111004;28;20447;-66
2022/06/18 06:11:38;;;;;;;2.90;2.13;;;;;;;;;;5110836;28;20571;-66
2022/06/18 06:14:05;;;;;;;3.90;2.43;;;;;;;;;;5111126;28;20539;-66
2022/06/18 06:16:33;;;;;;;2.87;2.30;;;;;;;;;;5112986;28;20448;-66
2022/06/18 06:19:01;;;;;;;3.17;2.40;;;;;;;;;;5115166;28;20485;-66
2022/06/18 06:21:28;;;;;;;2.63;2.43;;;;;;;;;;5115454;28;20447;-66
2022/06/18 06:23:55;;;;;;;2.77;2.57;;;;;;;;;;5115077;28;20443;-66
2022/06/18 06:26:25;;;;;;;2.50;2.30;;;;;;;;;;5115441;28;20567;-66
2022/06/18 06:28:52;;;;;;;2.97;2.03;;;;;;;;;;5115209;28;20475;-67
2022/06/18 06:31:19;;;;;;;2.73;2.20;;;;;;;;;;5115248;28;20514;-66
2022/06/18 06:33:46;;;;;;;2.40;2.20;;;;;;;;;;5115883;28;20471;-66
2022/06/18 06:36:17;;;;;;;2.30;2.10;;;;;;;;;;5115355;28;20530;-66
2022/06/18 06:38:44;;;;;;;3.20;2.70;;;;;;;;;;5115655;28;20467;-67
2022/06/18 06:41:13;;;;;;;2.90;2.13;;;;;;;;;;5114513;28;20980;-66
2022/06/18 06:43:41;;;;;;;2.73;2.37;;;;;;;;;;5115562;28;20449;-66
2022/06/18 06:46:11;;;;;;;2.60;2.40;;;;;;;;;;5114722;28;21126;-67
2022/06/18 06:48:38;;;;;;;2.40;2.20;;;;;;;;;;5115342;28;20452;-67
2022/06/18 06:51:06;;;;;;;2.63;2.30;;;;;;;;;;5114315;28;20530;-67
2022/06/18 06:53:35;;;;;;;3.13;1.97;;;;;;;;;;5115378;28;20444;-67
2022/06/18 06:58:46;;;;;;;2.00;1.90;;;;;;;;;;5115013;28;20504;-66
2022/06/18 07:01:14;;;;;;;2.13;2.00;;;;;;;;;;5114419;28;20504;-66
2022/06/18 07:03:42;;;;;;;4.33;2.73;;;;;;;;;;5114673;28;20949;-66
2022/06/18 07:06:09;;;;;;;2.53;2.00;;;;;;;;;;5114088;28;20980;-66
2022/06/18 07:08:37;;;;;;;2.03;1.83;;;;;;;;;;5114915;28;20454;-66
2022/06/18 07:11:04;;;;;;;2.50;2.30;;;;;;;;;;5113557;28;20454;-67
2022/06/18 07:13:31;;;;;;;1.87;1.73;;;;;;;;;;5115050;28;20443;-67
2022/06/18 07:15:59;;;;;;;2.47;2.27;;;;;;;;;;5114089;28;20451;-67
2022/06/18 07:18:31;;;;;;;1.93;1.83;;;;;;;;;;5114621;28;20483;-67
2022/06/18 07:20:58;;;;;;;2.50;2.30;;;;;;;;;;5113724;28;20512;-67
2022/06/18 07:23:25;;;;;;;2.80;1.90;;;;;;;;;;5114729;28;20526;-67
2022/06/18 07:25:53;;;;;;;2.10;1.90;;;;;;;;;;5113840;28;20949;-68
2022/06/18 07:28:21;;;;;;;2.63;2.27;;;;;;;;;;5114341;28;20819;-67
2022/06/18 07:30:48;;;;;;;2.20;2.00;;;;;;;;;;5113824;28;20443;-73
2022/06/18 07:33:16;;;;;;;3.80;1.97;;;;;;;;;;5114390;28;20454;-67
2022/06/18 07:35:43;;;;;;;1.83;1.70;;;;;;;;;;5114606;28;20447;-67
2022/06/18 07:38:10;;;;;;;2.20;2.00;;;;;;;;;;5113634;28;20502;-67
2022/06/18 07:40:44;;;;;;;2.17;1.93;;;;;;;;;;5113636;28;20463;-67
2022/06/18 07:43:16;;;;;;;1.97;1.87;;;;;;;;;;5113474;28;20493;-67
2022/06/18 07:45:44;;;;;;;1.87;1.77;;;;;;;;;;5114551;28;20450;-67
2022/06/18 07:48:12;;;;;;;2.10;1.87;;;;;;;;;;5113615;28;20520;-67
2022/06/18 07:50:39;;;;;;;1.77;1.63;;;;;;;;;;5113348;28;20939;-67
2022/06/18 07:53:06;;;;;;;4.80;1.97;;;;;;;;;;5113181;28;20449;-67
2022/06/18 07:55:34;;;;;;;2.10;1.90;;;;;;;;;;5113999;28;20466;-67
2022/06/18 07:58:01;;;;;;;2.10;1.90;;;;;;;;;;5113451;28;20459;-67
2022/06/18 08:00:29;;;;;;;2.93;2.00;;;;;;;;;;5113768;28;20452;-67
2022/06/18 08:02:56;;;;;;;1.70;1.60;;;;;;;;;;5112892;28;20947;-67
2022/06/18 08:05:25;;;;;;;2.33;2.13;;;;;;;;;;5113459;28;20448;-67
2022/06/18 08:07:52;;;;;;;1.60;1.50;;;;;;;;;;5113058;28;20487;-67
2022/06/18 08:10:19;;;;;;;1.57;1.47;;;;;;;;;;5113138;28;20452;-67
2022/06/18 08:12:47;;;;;;;2.37;1.77;;;;;;;;;;5113185;28;20452;-67
2022/06/18 08:15:14;;;;;;;1.50;1.40;;;;;;;;;;5113712;28;20456;-67
2022/06/18 08:17:42;;;;;;;4.50;2.03;;;;;;;;;;5113520;28;20443;-67
2022/06/18 08:20:10;;;;;;;2.03;1.80;;;;;;;;;;5112863;28;20493;-68
2022/06/18 08:22:38;;;;;;;2.73;1.80;;;;;;;;;;5112967;28;20874;-67
2022/06/18 08:25:06;;;;;;;2.07;1.93;;;;;;;;;;5112969;28;20439;-67
2022/06/18 08:27:33;;;;;;;1.80;1.70;;;;;;;;;;5099560;28;20472;-67
2022/06/18 08:30:01;;;;;;;2.23;1.60;;;;;;;;;;5112678;28;20474;-67
2022/06/18 08:32:28;;;;;;;2.00;1.80;;;;;;;;;;5112899;28;20448;-67
2022/06/18 08:34:57;;;;;;;2.07;1.87;;;;;;;;;;5112636;28;20778;-67
2022/06/18 08:37:24;;;;;;;2.40;1.90;;;;;;;;;;5113132;28;20466;-67
2022/06/18 08:39:52;;;;;;;2.13;1.93;;;;;;;;;;5111702;28;20919;-67
2022/06/18 08:42:31;;;;;;;2.30;1.50;;;;;;;;;;5112578;28;20482;-68
2022/06/18 08:45:03;;;;;;;1.50;1.40;;;;;;;;;;5112493;28;20488;-67
2022/06/18 08:47:37;;;;;;;1.70;1.60;;;;;;;;;;5113073;28;20451;-67
2022/06/18 08:50:12;;;;;;;1.90;1.70;;;;;;;;;;5112492;28;20791;-67
2022/06/18 08:52:48;;;;;;;1.83;1.70;;;;;;;;;;5112906;28;20447;-67
2022/06/18 08:55:19;;;;;;;1.70;1.60;;;;;;;;;;5112912;28;20447;-66
2022/06/18 08:57:49;;;;;;;2.00;1.90;;;;;;;;;;5112409;28;20445;-67
2022/06/18 09:00:18;;;;;;;2.03;1.83;;;;;;;;;;5112428;28;20485;-67
2022/06/18 09:02:49;;;;;;;2.00;1.90;;;;;;;;;;5112336;28;20891;-67
2022/06/18 09:05:23;;;;;;;1.60;1.50;;;;;;;;;;5112728;28;20487;-67
2022/06/18 09:08:11;;;;;;;2.10;2.00;;;;;;;;;;5111729;28;20914;-67
2022/06/18 09:10:45;;;;;;;1.60;1.50;;;;;;;;;;5111849;28;20538;-67
2022/06/18 09:13:15;;;;;;;1.60;1.50;;;;;;;;;;5110648;28;20511;-67
2022/06/18 09:15:45;;;;;;;1.67;1.57;;;;;;;;;;5112147;28;20460;-67
2022/06/18 09:18:16;;;;;;;1.57;1.47;;;;;;;;;;5111685;28;20451;-67
2022/06/18 09:20:48;;;;;;;1.97;1.80;;;;;;;;;;5111723;28;20482;-67
2022/06/18 09:23:17;;;;;;;2.53;2.00;;;;;;;;;;5112353;28;20431;-67
2022/06/18 09:25:47;;;;;;;2.17;1.97;;;;;;;;;;5112136;28;20850;-67
2022/06/18 09:28:16;;;;;;;1.80;1.70;;;;;;;;;;5112134;28;20565;-67
2022/06/18 09:30:45;;;;;;;1.80;1.57;;;;;;;;;;5111676;28;20571;-67
2022/06/18 09:33:14;;;;;;;2.53;1.83;;;;;;;;;;5111031;28;20461;-67
2022/06/18 09:35:44;;;;;;;1.87;1.77;;;;;;;;;;5111584;28;20890;-67
2022/06/18 09:38:16;;;;;;;1.70;1.60;;;;;;;;;;5110903;28;20447;-67
2022/06/18 09:40:47;;;;;;;2.90;1.80;;;;;;;;;;5111597;28;20503;-67
2022/06/18 09:43:19;;;;;;;2.23;2.03;;;;;;;;;;5111480;28;20435;-67
2022/06/18 09:45:48;;;;;;;1.60;1.50;;;;;;;;;;5111949;28;20435;-68
2022/06/18 09:48:15;;;;;;;2.50;1.70;;;;;;;;;;5111806;28;20450;-67
2022/06/18 09:50:45;;;;;;;1.80;1.70;;;;;;;;;;5111486;28;20818;-67
2022/06/18 09:53:16;;;;;;;2.07;1.87;;;;;;;;;;5110841;28;20934;-67
2022/06/18 09:55:45;;;;;;;1.30;1.20;;;;;;;;;;5111503;28;20455;-68
2022/06/18 09:58:16;;;;;;;2.33;1.53;;;;;;;;;;5111137;28;20447;-67
2022/06/18 10:00:44;;;;;;;1.47;1.37;;;;;;;;;;5111361;28;20499;-66
2022/06/18 10:03:14;;;;;;;1.57;1.47;;;;;;;;;;5110963;28;20510;-66
2022/06/18 10:08:40;;;;;;;2.03;1.93;;;;;;;;;;5036172;28;20645;-66
2022/06/18 10:11:10;;;;;;;1.30;1.20;;;;;;;;;;5111658;28;20832;-67
2022/06/18 10:13:41;;;;;;;1.43;1.33;;;;;;;;;;5112999;28;20542;-67
2022/06/18 10:16:13;;;;;;;1.40;1.30;;;;;;;;;;5098136;28;20534;-67
2022/06/18 10:18:47;;;;;;;1.50;1.40;;;;;;;;;;5111303;28;20469;-66
2022/06/18 10:21:18;;;;;;;1.63;1.53;;;;;;;;;;5100010;28;20465;-66
2022/06/18 10:23:51;;;;;;;1.77;1.10;;;;;;;;;;5111739;28;20201;-68
2022/06/18 10:26:24;;;;;;;1.87;1.60;;;;;;;;;;5111423;28;20487;-68
2022/06/18 10:28:58;;;;;;;1.20;1.10;;;;;;;;;;5110791;28;20216;-68
2022/06/18 10:31:38;;;;;;;3.30;1.80;;;;;;;;;;5111261;28;20447;-67
2022/06/18 10:34:11;;;;;;;1.57;1.47;;;;;;;;;;5111128;28;20458;-67
2022/06/18 10:36:42;;;;;;;1.80;1.37;;;;;;;;;;5111285;28;20219;-66
2022/06/18 10:39:18;;;;;;;1.47;1.37;;;;;;;;;;5110737;28;20220;-67
2022/06/18 10:41:52;;;;;;;1.70;1.60;;;;;;;;;;5110927;28;20446;-68
2022/06/18 10:44:25;;;;;;;1.53;1.43;;;;;;;;;;5111130;28;20696;-67
2022/06/18 10:47:00;;;;;;;1.55;1.45;;;;;;;;;;5110692;28;20205;-69
2022/06/18 10:49:28;;;;;;;1.83;1.73;;;;;;;;;;5111263;28;20280;-68
2022/06/18 10:51:55;;;;;;;2.08;1.38;;;;;;;;;;5110219;28;20193;-68
2022/06/18 10:54:30;;;;;;;1.93;1.40;;;;;;;;;;5110620;28;20198;-68
2022/06/18 10:56:58;;;;;;;1.58;1.48;;;;;;;;;;5110688;28;20212;-67
2022/06/18 10:59:28;;;;;;;1.45;1.35;;;;;;;;;;5110608;28;20221;-67
2022/06/18 11:01:56;;;;;;;1.95;1.85;;;;;;;;;;5110396;28;20225;-67
2022/06/18 11:04:24;;;;;;;2.40;1.42;;;;;;;;;;5114774;28;20196;-68
2022/06/18 11:06:55;;;;;;;2.00;1.60;;;;;;;;;;5114530;28;20261;-68
2022/06/18 11:09:23;;;;;;;1.98;1.45;;;;;;;;;;5114753;28;20559;-69
2022/06/18 11:11:55;;;;;;;1.65;1.50;;;;;;;;;;5113666;28;20478;-67
2022/06/18 11:14:24;;;;;;;1.63;1.52;;;;;;;;;;5114701;28;20198;-68
2022/06/18 11:16:54;;;;;;;2.05;1.88;;;;;;;;;;5114128;28;20254;-68
2022/06/18 11:19:27;;;;;;;2.00;1.65;;;;;;;;;;5114505;28;20218;-68
2022/06/18 11:21:54;;;;;;;1.70;1.23;;;18.60;1.00;;;;;;5113737;28;20202;-68
2022/06/18 11:24:30;;;;;;;2.28;1.50;;;32.30;1.00;;;;;;5114573;28;20197;-68
2022/06/18 11:27:03;;;;;;;1.65;1.55;;;32.00;1.00;;;;;;5113325;28;20225;-67
2022/06/18 11:29:34;;;;;;;1.60;1.50;;;32.20;1.00;;;;;;5114382;28;20201;-67
2022/06/18 11:32:08;;;;;;;1.60;1.50;;;32.10;1.00;;;;;;5113098;28;20674;-68
2022/06/18 11:34:38;;;;;;;1.40;1.30;;;32.50;1.00;;;;;;5113844;28;20284;-67
2022/06/18 11:37:17;;;;;;;2.03;1.90;;;32.50;1.00;;;;;;5114079;28;20193;-68
2022/06/18 11:39:51;;;;;;;2.13;1.92;;;32.20;1.00;;;;;;5114398;28;20611;-68
2022/06/18 11:42:26;;;;;;;1.90;1.80;;;32.30;1.00;;;;;;5114234;28;20193;-68
2022/06/18 11:44:58;;;;;;;1.90;1.75;;;32.30;1.00;;;;;;5113419;28;20194;-68
2022/06/18 11:47:29;;;;;;;1.80;1.58;;;32.50;1.00;;;;;;5114440;28;20254;-68
2022/06/18 11:50:00;;;;;;;1.88;1.77;;;32.50;1.00;;;;;;5112984;28;20373;-68
2022/06/18 11:52:35;;;;;;;1.60;1.50;;;32.80;1.00;;;;;;5113742;28;20205;-67
2022/06/18 11:55:15;;;;;;;3.15;2.85;;;32.80;1.00;;;;;;5113160;28;20203;-67
2022/06/18 11:57:50;;;;;;;2.40;1.60;;;33.00;1.00;;;;;;5113591;28;20201;-67
2022/06/18 12:00:20;;;;;;;1.95;1.83;;;33.40;1.00;;;;;;5113941;28;20213;-67
2022/06/18 12:02:55;;;;;;;7.25;4.97;;;33.60;1.00;;;;;;5114161;28;20206;-66
2022/06/18 12:05:27;;;;;;;3.70;3.40;;;33.30;1.00;;;;;;5113771;28;20193;-69
2022/06/18 12:07:57;;;;;;;2.00;1.80;;;33.10;1.00;;;;;;5112708;28;20193;-67
2022/06/18 12:10:46;;;;;;;2.47;1.80;;;33.40;1.00;;;;;;5113404;28;20205;-67
2022/06/18 12:13:24;;;;;;;3.53;1.67;;;33.30;1.00;;;;;;5113214;28;20213;-67
2022/06/18 12:15:59;;;;;;;6.15;1.60;;;33.10;1.00;;;;;;5112266;28;20198;-67
2022/06/18 12:18:33;;;;;;;1.23;1.13;;;33.60;1.00;;;;;;5113628;28;20554;-67
2022/06/18 12:21:09;;;;;;;3.30;1.80;;;33.90;1.00;;;;;;5112036;28;20222;-67
2022/06/18 12:23:44;;;;;;;4.55;1.90;;;33.70;1.00;;;;;;5113085;28;20563;-67
2022/06/18 12:26:18;;;;;;;2.10;1.83;;;33.70;1.00;;;;;;5111773;28;20755;-67
2022/06/18 12:29:12;;;;;;;2.95;1.35;;;33.50;1.00;;;;;;5112693;28;20648;-68
2022/06/18 12:31:46;;;;;;;3.50;1.90;;;33.80;1.00;;;;;;5112392;28;20202;-68
2022/06/18 12:34:30;;;;;;;1.70;1.60;;;33.80;1.00;;;;;;5113122;28;20193;-67
2022/06/18 12:37:08;;;;;;;2.85;1.92;;;33.90;1.00;;;;;;5112150;28;20641;-67
2022/06/18 12:39:47;;;;;;;3.75;1.70;;;34.00;1.00;;;;;;5112692;28;20243;-67
2022/06/18 12:42:21;;;;;;;2.15;1.67;;;34.10;1.00;;;;;;5113109;28;20618;-67
2022/06/18 12:44:53;;;;;;;4.13;2.40;;;34.40;1.00;;;;;;5112083;28;20649;-72
2022/06/18 12:47:33;;;;;;;2.30;1.73;;;34.10;1.00;;;;;;5112715;28;20199;-67
2022/06/18 12:50:07;;;;;;;2.70;2.00;;;34.10;1.00;;;;;;5111547;28;20201;-67
2022/06/18 12:52:42;;;;;;;2.78;1.83;;;34.50;1.00;;;;;;5112856;28;20193;-67
2022/06/18 12:55:28;;;;;;;2.97;1.95;;;34.50;1.00;;;;;;5099201;28;20246;-66
2022/06/18 12:58:07;;;;;;;2.03;1.80;;;34.60;1.00;;;;;;5111571;28;20193;-67
2022/06/18 13:00:41;;;;;;;3.75;1.92;;;34.00;1.00;;;;;;5111840;28;20281;-66
2022/06/18 13:03:47;;;;;;;3.13;2.55;;;34.00;1.00;;;;;;5111828;28;20196;-67
2022/06/18 13:06:24;;;;;;;3.47;2.78;;;34.00;1.00;;;;;;5112500;28;20204;-67
2022/06/18 13:08:55;;;;;;;3.08;2.00;;;;;;;;;;5111686;28;20193;-67
2022/06/18 13:11:33;;;;;;;2.50;2.30;;;;;;;;;;5111971;28;20194;-67
2022/06/18 13:14:05;;;;;;;2.63;1.80;;;;;;;;;;5111696;28;20195;-67
2022/06/18 13:16:35;;;;;;;4.28;2.22;;;;;;;;;;5112370;28;20277;-67
2022/06/18 13:19:06;;;;;;;2.78;2.17;;;;;;;;;;5111380;28;20208;-67
2022/06/18 13:21:33;;;;;;;2.30;2.10;;;;;;;;;;5111764;28;20220;-67
2022/06/18 13:29:38;;;;;;;3.45;2.88;;;;;;;;;;5111746;28;20204;-67
2022/06/18 13:32:09;;;;;;;2.10;1.92;;;;;;;;;;5110990;28;20194;-67
2022/06/18 13:34:38;;;;;;;2.50;2.10;;;;;;;;;;5111890;28;20189;-67
2022/06/18 13:37:09;;;;;;;2.65;2.30;;;;;;;;;;5111396;28;20653;-67
2022/06/18 13:39:44;;;;;;;2.92;2.50;;;;;;;;;;5111568;28;20608;-68
2022/06/18 13:42:15;;;;;;;4.70;2.15;;;;;;;;;;5111442;28;20196;-67
2022/06/18 13:44:51;;;;;;;2.40;2.20;;;;;;;;;;5111782;28;20293;-67
2022/06/18 13:47:25;;;;;;;3.28;2.22;;;;;;;;;;5111947;28;20197;-69
2022/06/18 13:49:55;;;;;;;3.70;2.45;;;;;;;;;;5110624;28;20235;-69
2022/06/18 13:52:22;;;;;;;4.28;2.33;;;;;;;;;;5112043;28;20200;-68
2022/06/18 13:54:50;;;;;;;2.67;2.25;;;;;;;;;;5110983;28;20288;-68
2022/06/18 13:57:19;;;;;;;2.50;2.30;;;;;;;;;;5111714;28;20229;-67
2022/06/18 13:59:51;;;;;;;2.42;2.00;;;;;;;;;;5111126;28;20197;-67
2022/06/18 14:02:26;;;;;;;2.38;2.17;;;;;;;;;;5111419;28;20621;-69
2022/06/18 14:04:58;;;;;;;3.90;2.35;;;;;;;;;;5098083;28;20188;-68
2022/06/18 14:07:27;;;;;;;2.67;2.30;;;;;;;;;;5111147;28;20197;-68
2022/06/18 14:09:55;;;;;;;2.35;2.10;;;;;;;;;;5110628;28;20197;-68
2022/06/18 14:12:25;;;;;;;3.30;2.40;;;;;;;;;;5111126;28;20194;-68
2022/06/18 14:15:02;;;;;;;4.45;2.53;;;;;;;;;;5111492;28;20292;-68
2022/06/18 14:17:38;;;;;;;5.28;4.45;;;;;;;;;;5111399;28;20197;-67
2022/06/18 14:20:06;;;;;;;4.07;2.92;;;;;;;;;;5110182;28;20216;-67
2022/06/18 14:22:33;;;;;;;3.80;3.17;;;;;;;;;;5111038;28;20205;-68
2022/06/18 14:25:02;;;;;;;2.92;2.10;;;;;;;;;;5110953;28;20269;-67
2022/06/18 14:27:30;;;;;;;4.00;2.65;;;;;;;;;;5097440;28;20316;-67
2022/06/18 14:29:58;;;;;;;2.78;2.55;;;;;;;;;;5109932;28;20692;-67
2022/06/18 14:32:33;;;;;;;2.35;2.15;;;;;;;;;;5111474;28;20243;-67
2022/06/18 14:35:07;;;;;;;2.50;2.22;;;;;;;;;;5110602;28;20211;-68
2022/06/18 14:37:40;;;;;;;5.22;2.50;;;;;;;;;;5112433;28;20275;-67
2022/06/18 14:40:08;;;;;;;3.22;2.50;;;;;;;;;;5114324;28;20251;-67